Time;durP1;ratioP1;P1;durP2;ratioP2;P2;SDS_P1;SDS_P2;PMS_P1;PMS_P2;Temp;Humidity;BMP_temperature;BMP_pressure;BME280_temperature;BME280_humidity;BME280_pressure;Samples;Min_cycle;Max_cycle;Signal;HPM_P1;HPM_P2
2021/12/10 00:00:01;;;;;;;25.77;11.32;;;;;;;2.03;100.00;94076.91;5071052;27;20142;-64
2021/12/10 00:02:34;;;;;;;34.25;13.82;;;;;;;1.98;100.00;94070.78;5100883;28;20040;-64
2021/12/10 00:05:06;;;;;;;43.67;15.25;;;;;;;1.75;100.00;94076.28;5101205;28;20119;-64
2021/12/10 00:07:34;;;;;;;41.00;19.52;;;;;;;1.63;100.00;94076.84;5100230;28;20052;-64
2021/12/10 00:10:06;;;;;;;53.17;23.10;;;;;;;1.43;100.00;94063.19;5099155;28;20401;-64
2021/12/10 00:12:40;;;;;;;51.13;23.38;;;;;;;1.37;100.00;94076.75;5099605;28;20040;-64
2021/12/10 00:15:08;;;;;;;57.35;24.10;;;;;;;1.25;100.00;94081.66;5102499;28;20130;-64
2021/12/10 00:17:35;;;;;;;60.17;22.55;;;;;;;1.18;100.00;94076.50;5105811;28;20040;-64
2021/12/10 00:20:05;;;;;;;55.65;24.27;;;;;;;1.26;100.00;94089.19;5100406;28;20048;-64
2021/12/10 00:22:41;;;;;;;64.22;27.30;;;;;;;1.11;100.00;94071.34;5101632;28;20054;-65
2021/12/10 00:25:18;;;;;;;52.38;24.38;;;;;;;1.17;100.00;94074.13;5101280;28;20052;-64
2021/12/10 00:27:48;;;;;;;58.08;23.52;;;;;;;0.99;100.00;94069.50;5099879;28;20162;-64
2021/12/10 00:30:27;;;;;;;56.95;25.73;;;;;;;1.14;100.00;94070.97;5102713;28;20044;-65
2021/12/10 00:33:13;;;;;;;60.83;25.02;;;;;;;1.26;100.00;94053.25;5104123;28;20040;-65
2021/12/10 00:35:41;;;;;;;61.00;25.30;;;;;;;1.26;100.00;94053.25;5098633;28;20047;-65
2021/12/10 00:38:10;;;;;;;47.55;22.52;;;;;;;1.41;100.00;94049.75;5100882;28;20046;-64
2021/12/10 00:40:37;;;;;;;47.85;22.10;;;;;;;1.31;100.00;94050.91;5100613;28;20036;-65
2021/12/10 00:43:04;;;;;;;48.60;22.98;;;;;;;1.28;100.00;94037.69;5107296;28;20040;-64
2021/12/10 00:45:31;;;;;;;45.03;21.67;;;;;;;1.33;100.00;94038.69;5104982;28;20058;-64
2021/12/10 00:47:58;;;;;;;37.95;17.60;;;;;;;1.16;100.00;94042.56;5101555;28;20051;-64
2021/12/10 00:50:31;;;;;;;48.00;20.70;;;;;;;1.12;100.00;94049.84;5101324;28;20042;-64
2021/12/10 00:52:59;;;;;;;38.13;17.02;;;;;;;0.85;100.00;94051.50;5104667;28;20046;-65
2021/12/10 00:55:26;;;;;;;38.90;18.95;;;;;;;0.92;100.00;94042.06;5101936;28;20040;-65
2021/12/10 00:57:55;;;;;;;46.25;19.65;;;;;;;1.12;100.00;94033.66;5102793;28;20054;-65
2021/12/10 01:00:31;;;;;;;40.45;16.60;;;;;;;1.05;100.00;94036.19;5100481;28;20055;-65
2021/12/10 01:02:58;;;;;;;54.03;19.38;;;;;;;1.07;100.00;94033.44;5099870;28;20035;-65
2021/12/10 01:05:26;;;;;;;46.92;20.13;;;;;;;1.03;100.00;94011.75;5109999;28;20424;-65
2021/12/10 01:07:53;;;;;;;41.97;19.42;;;;;;;1.02;100.00;94018.63;5107261;28;20065;-65
2021/12/10 01:10:33;;;;;;;44.80;18.02;;;;;;;1.21;100.00;94009.44;5098218;28;20040;-65
2021/12/10 01:13:03;;;;;;;32.22;16.67;;;;;;;1.39;100.00;94026.84;5088031;28;20519;-65
2021/12/10 01:24:17;;;;;;;38.17;19.25;;;;;;;1.47;100.00;94033.56;5090825;28;20119;-64
2021/12/10 01:29:26;;;;;;;39.25;15.88;;;;;;;1.44;100.00;94023.69;5087012;28;20055;-65
2021/12/10 01:31:54;;;;;;;47.45;17.50;;;;;;;1.59;100.00;94026.88;5087668;28;20040;-65
2021/12/10 01:34:22;;;;;;;44.97;18.02;;;;;;;1.47;100.00;94036.91;5091405;28;20036;-65
2021/12/10 01:36:49;;;;;;;47.20;21.08;;;;;;;1.50;100.00;94025.50;5093612;28;20059;-64
2021/12/10 01:39:22;;;;;;;45.50;22.38;;;;;;;1.43;100.00;94004.94;5093065;28;20044;-64
2021/12/10 01:41:57;;;;;;;43.28;21.98;;;;;;;1.51;100.00;94002.22;5092602;28;20056;-64
2021/12/10 01:44:29;;;;;;;49.88;20.98;;;;;;;1.53;100.00;94012.25;5087773;28;20044;-64
2021/12/10 01:47:00;;;;;;;51.75;21.13;;;;;;;1.60;100.00;94013.06;5086413;28;20047;-64
2021/12/10 01:49:28;;;;;;;49.42;22.17;;;;;;;1.52;100.00;93985.03;5090215;28;20044;-64
2021/12/10 01:51:56;;;;;;;42.03;18.35;;;;;;;1.42;100.00;93984.59;5093545;28;20044;-64
2021/12/10 01:54:30;;;;;;;41.17;18.27;;;;;;;1.29;100.00;93981.03;5090956;28;20032;-65
2021/12/10 01:57:02;;;;;;;45.85;20.48;;;;;;;1.46;100.00;94007.13;5087265;28;20118;-64
2021/12/10 01:59:31;;;;;;;41.45;18.17;;;;;;;1.32;100.00;94005.50;5087487;28;20051;-64
2021/12/10 02:02:06;;;;;;;50.97;18.40;;;;;;;1.34;100.00;93999.19;5089118;28;20124;-64
2021/12/10 02:04:35;;;;;;;53.58;23.42;;;;;;;1.51;100.00;93988.56;5094886;28;20493;-63
2021/12/10 02:07:05;;;;;;;50.78;20.20;;;;;;;1.54;100.00;93977.91;5091121;28;20044;-64
2021/12/10 02:09:32;;;;;;;43.65;21.00;;;;;;;1.60;100.00;93974.56;5090067;28;20117;-64
2021/12/10 02:11:59;;;;;;;43.33;20.60;;;;;;;1.65;100.00;93953.44;5090000;28;20045;-64
2021/12/10 02:14:27;;;;;;;42.13;18.67;;;;;;;1.63;100.00;93961.34;5087857;28;20489;-63
2021/12/10 02:16:59;;;;;;;36.30;18.00;;;;;;;1.54;100.00;93972.78;5090527;28;20050;-63
2021/12/10 02:19:28;;;;;;;37.47;18.25;;;;;;;1.39;100.00;93978.09;5091381;28;20790;-63
2021/12/10 02:21:56;;;;;;;48.78;20.95;;;;;;;1.43;100.00;93979.28;5085950;28;20118;-63
2021/12/10 02:24:23;;;;;;;46.28;21.00;;;;;;;1.44;100.00;93967.22;5090122;28;20046;-63
2021/12/10 02:26:56;;;;;;;40.78;19.23;;;;;;;1.53;100.00;93961.72;5068235;28;20056;-63
2021/12/10 02:29:27;;;;;;;46.47;20.55;;;;;;;1.60;100.00;93948.88;5088558;28;20032;-64
2021/12/10 02:31:54;;;;;;;50.00;21.52;;;;;;;1.66;100.00;93950.69;5093841;28;20504;-63
2021/12/10 02:34:23;;;;;;;41.88;19.98;;;;;;;1.67;100.00;93949.69;5087542;28;20044;-63
2021/12/10 02:36:51;;;;;;;39.47;19.60;;;;;;;1.63;100.00;93935.66;5091085;28;20051;-63
2021/12/10 02:39:21;;;;;;;47.00;19.88;;;;;;;1.58;100.00;93935.47;5091457;28;20135;-63
2021/12/10 02:41:48;;;;;;;46.40;19.50;;;;;;;1.63;100.00;93935.66;5092614;28;20058;-64
2021/12/10 02:44:21;;;;;;;43.92;19.30;;;;;;;1.66;100.00;93955.81;5089095;28;20044;-63
2021/12/10 02:46:49;;;;;;;41.25;17.58;;;;;;;1.72;100.00;93947.31;5086577;28;20052;-63
2021/12/10 02:49:17;;;;;;;45.53;19.92;;;;;;;1.76;100.00;93947.72;5087626;28;20044;-63
2021/12/10 02:51:44;;;;;;;45.33;21.02;;;;;;;1.76;100.00;93952.84;5089299;28;20093;-64
2021/12/10 02:54:14;;;;;;;36.45;18.33;;;;;;;1.79;100.00;93954.25;5090755;28;20048;-63
2021/12/10 02:56:41;;;;;;;36.75;18.10;;;;;;;1.86;100.00;93955.03;5089982;28;20051;-63
2021/12/10 02:59:08;;;;;;;41.90;19.02;;;;;;;1.85;100.00;93963.72;5094294;28;20051;-63
2021/12/10 03:01:41;;;;;;;46.95;19.15;;;;;;;1.80;100.00;93966.88;5093261;28;20047;-62
2021/12/10 03:04:09;;;;;;;43.42;18.48;;;;;;;1.70;100.00;93954.44;5091810;28;20036;-63
2021/12/10 03:06:44;;;;;;;46.38;18.55;;;;;;;1.81;100.00;93962.53;5097646;28;20043;-63
2021/12/10 03:09:13;;;;;;;37.63;18.77;;;;;;;1.75;100.00;93973.56;5092961;28;20043;-63
2021/12/10 03:11:46;;;;;;;46.70;20.10;;;;;;;1.68;100.00;93956.41;5089840;28;20043;-63
2021/12/10 03:14:16;;;;;;;40.15;18.77;;;;;;;1.70;100.00;93962.13;5089670;28;20052;-64
2021/12/10 03:16:45;;;;;;;48.25;19.15;;;;;;;1.53;100.00;93964.31;5094551;28;20043;-63
2021/12/10 03:19:12;;;;;;;45.88;21.15;;;;;;;1.50;100.00;93971.59;5071772;28;20048;-63
2021/12/10 03:21:42;;;;;;;50.67;21.20;;;;;;;1.52;100.00;93974.75;5094604;28;20398;-64
2021/12/10 03:24:09;;;;;;;44.35;19.15;;;;;;;1.45;100.00;93973.97;5090569;28;20047;-63
2021/12/10 03:26:36;;;;;;;45.70;21.17;;;;;;;1.40;100.00;93971.97;5096133;28;20036;-63
2021/12/10 03:29:04;;;;;;;46.38;20.63;;;;;;;1.33;100.00;93976.28;5094522;28;20036;-63
2021/12/10 03:31:32;;;;;;;38.90;20.55;;;;;;;1.38;100.00;93957.75;5094390;28;20048;-63
2021/12/10 03:33:59;;;;;;;45.75;21.98;;;;;;;1.53;100.00;93966.06;5092764;28;20046;-64
2021/12/10 03:36:27;;;;;;;48.35;21.65;;;;;;;1.65;100.00;93959.34;5095093;28;20055;-64
2021/12/10 03:38:54;;;;;;;51.97;20.08;;;;;;;1.50;100.00;93956.19;5096198;28;20046;-64
2021/12/10 03:41:22;;;;;;;39.88;19.48;;;;;;;1.50;100.00;93963.91;5096078;28;20050;-64
2021/12/10 03:43:51;;;;;;;44.75;21.38;;;;;;;1.62;100.00;93961.53;5090916;28;20147;-65
2021/12/10 03:46:20;;;;;;;44.03;20.48;;;;;;;1.71;100.00;93973.19;5093792;28;20547;-65
2021/12/10 03:48:47;;;;;;;43.25;19.98;;;;;;;1.59;100.00;93979.91;5096765;28;20501;-64
2021/12/10 03:51:18;;;;;;;46.80;18.75;;;;;;;1.53;100.00;93971.19;5093268;28;20055;-65
2021/12/10 03:53:46;;;;;;;39.58;18.50;;;;;;;1.66;100.00;93960.94;5090704;28;20047;-64
2021/12/10 03:56:16;;;;;;;43.47;19.48;;;;;;;1.79;100.00;93975.56;5090657;28;20415;-65
2021/12/10 03:58:44;;;;;;;46.00;21.35;;;;;;;1.62;100.00;93994.91;5095530;28;20063;-64
2021/12/10 04:01:13;;;;;;;52.75;24.23;;;;;;;1.74;100.00;93993.34;5091867;28;20040;-65
2021/12/10 04:03:47;;;;;;;62.15;28.20;;;;;;;1.73;100.00;93991.78;5097025;28;20062;-65
2021/12/10 04:06:14;;;;;;;64.57;29.30;;;;;;;1.68;100.00;93976.94;5087777;28;20124;-65
2021/12/10 04:08:42;;;;;;;62.92;24.48;;;;;;;1.77;100.00;93984.47;5091544;28;20051;-65
2021/12/10 04:11:15;;;;;;;53.90;24.13;;;;;;;1.75;100.00;93991.53;5096450;28;20512;-65
2021/12/10 04:13:47;;;;;;;54.20;25.45;;;;;;;1.82;100.00;93992.34;5093945;28;20494;-67
2021/12/10 04:16:17;;;;;;;62.35;27.55;;;;;;;1.77;100.00;94002.44;5093458;28;20048;-66
2021/12/10 04:18:46;;;;;;;58.28;25.25;;;;;;;1.79;100.00;94001.25;5072551;28;20048;-66
2021/12/10 04:21:14;;;;;;;65.93;27.45;;;;;;;1.82;100.00;94010.31;5092352;28;20044;-66
2021/12/10 04:23:42;;;;;;;67.38;29.88;;;;;;;1.81;100.00;94003.63;5092104;28;20036;-66
2021/12/10 04:26:12;;;;;;;72.45;33.85;;;;;;;1.78;100.00;94001.44;5097630;28;20048;-66
2021/12/10 04:28:39;;;;;;;88.80;37.00;;;;;;;1.83;100.00;93992.16;5102090;28;20875;-66
2021/12/10 04:31:07;;;;;;;84.32;32.90;;;;;;;1.87;100.00;93983.09;5092759;28;20473;-66
2021/12/10 04:33:34;;;;;;;92.45;34.80;;;;;;;1.64;100.00;93983.47;5100162;28;20043;-68
2021/12/10 04:36:03;;;;;;;84.95;35.40;;;;;;;1.26;100.00;93978.88;5093559;28;20067;-68
2021/12/10 04:38:33;;;;;;;72.57;33.85;;;;;;;1.26;100.00;93981.44;5095973;28;20040;-68
2021/12/10 04:41:04;;;;;;;53.75;26.60;;;;;;;1.19;100.00;93996.00;5088625;28;20036;-68
2021/12/10 04:43:34;;;;;;;106.93;50.83;;;;;;;1.31;100.00;94020.13;5090325;28;20040;-68
2021/12/10 04:46:01;;;;;;;153.65;71.40;;;;;;;1.42;100.00;94025.66;5096967;28;20040;-70
2021/12/10 04:48:30;;;;;;;162.18;74.78;;;;;;;1.44;100.00;94032.19;5098680;28;20500;-69
2021/12/10 04:50:57;;;;;;;76.40;43.42;;;;;;;1.18;100.00;94025.19;5094292;28;20406;-69
2021/12/10 04:53:24;;;;;;;81.20;32.40;;;;;;;1.27;100.00;94034.31;5092975;28;20052;-69
2021/12/10 04:55:51;;;;;;;68.90;32.03;;;;;;;1.23;100.00;94032.31;5094651;28;20134;-69
2021/12/10 04:58:18;;;;;;;81.03;33.65;;;;;;;0.87;100.00;93998.25;5104157;28;20113;-69
2021/12/10 05:00:48;;;;;;;83.45;33.20;;;;;;;1.10;100.00;94017.69;5090703;28;20122;-69
2021/12/10 05:03:17;;;;;;;71.65;29.92;;;;;;;1.23;100.00;94022.06;5092906;28;20066;-69
2021/12/10 05:05:46;;;;;;;64.18;26.20;;;;;;;1.11;100.00;94014.13;5101594;28;20049;-68
2021/12/10 05:08:13;;;;;;;51.25;22.48;;;;;;;0.88;100.00;93992.16;5094737;28;20032;-68
2021/12/10 05:10:41;;;;;;;42.70;22.38;;;;;;;0.70;100.00;93995.25;5103722;28;20038;-68
2021/12/10 05:13:08;;;;;;;49.92;22.48;;;;;;;0.83;100.00;94002.19;5096026;28;20509;-68
2021/12/10 05:15:38;;;;;;;53.83;24.10;;;;;;;0.89;100.00;94011.69;5098256;28;20046;-68
2021/12/10 05:18:08;;;;;;;54.13;25.33;;;;;;;1.08;100.00;94011.94;5087074;28;20066;-67
2021/12/10 05:20:38;;;;;;;52.45;23.50;;;;;;;1.24;100.00;94001.34;5104376;28;20028;-68
2021/12/10 05:23:05;;;;;;;52.42;25.75;;;;;;;1.30;100.00;93998.00;5090790;28;20048;-68
2021/12/10 05:25:32;;;;;;;55.13;26.02;;;;;;;1.47;100.00;94000.22;5077948;28;20048;-68
2021/12/10 05:28:00;;;;;;;55.50;25.67;;;;;;;1.52;100.00;94010.69;5092282;28;20123;-68
2021/12/10 05:30:29;;;;;;;73.47;32.38;;;;;;;1.57;100.00;93998.06;5100883;28;20039;-67
2021/12/10 05:32:58;;;;;;;68.07;27.33;;;;;;;1.72;100.00;93990.97;5095786;28;20478;-68
2021/12/10 05:35:25;;;;;;;56.03;25.77;;;;;;;1.75;100.00;94006.94;5100433;28;20436;-67
2021/12/10 05:37:52;;;;;;;40.30;19.70;;;;;;;1.52;100.00;94005.56;5094405;28;20044;-68
2021/12/10 05:40:20;;;;;;;42.55;20.00;;;;;;;1.57;100.00;94003.19;5098666;28;20051;-68
2021/12/10 05:42:47;;;;;;;52.88;24.05;;;;;;;1.52;100.00;94005.56;5099281;28;20130;-67
2021/12/10 05:45:17;;;;;;;35.50;19.08;;;;;;;1.29;100.00;94022.06;5097133;28;20050;-67
2021/12/10 05:47:46;;;;;;;38.83;19.08;;;;;;;1.17;100.00;94039.03;5096711;28;20398;-66
2021/12/10 05:50:17;;;;;;;43.38;22.60;;;;;;;1.09;100.00;94026.34;5097819;28;20043;-66
2021/12/10 05:52:44;;;;;;;51.88;24.83;;;;;;;0.98;100.00;94019.22;5093258;28;20047;-66
2021/12/10 05:55:12;;;;;;;68.70;34.38;;;;;;;0.94;100.00;94019.59;5096196;28;20419;-66
2021/12/10 05:57:39;;;;;;;70.07;29.02;;;;;;;0.90;100.00;94013.28;5098528;28;20050;-66
2021/12/10 06:00:13;;;;;;;76.45;29.65;;;;;;;0.82;100.00;94021.09;5098301;28;20040;-67
2021/12/10 06:02:40;;;;;;;70.57;32.13;;;;;;;0.74;100.00;94008.47;5098759;28;20044;-66
2021/12/10 06:05:08;;;;;;;52.50;24.90;;;;;;;0.78;100.00;94014.78;5095980;28;20445;-66
2021/12/10 06:07:38;;;;;;;52.83;25.23;;;;;;;0.70;100.00;94023.44;5101018;28;20425;-66
2021/12/10 06:10:07;;;;;;;47.17;22.27;;;;;;;0.64;100.00;94023.38;5097614;28;20048;-66
2021/12/10 06:12:35;;;;;;;46.35;23.10;;;;;;;0.53;100.00;94017.03;5096996;28;20135;-66
2021/12/10 06:15:03;;;;;;;54.55;25.90;;;;;;;0.48;100.00;94027.03;5092365;28;20040;-67
2021/12/10 06:17:30;;;;;;;62.80;23.88;;;;;;;0.43;100.00;94022.47;5096457;28;20502;-66
2021/12/10 06:19:59;;;;;;;49.25;24.80;;;;;;;0.29;100.00;94000.31;5098794;28;20042;-65
2021/12/10 06:22:26;;;;;;;56.25;29.48;;;;;;;0.39;100.00;94016.13;5077379;28;20032;-66
2021/12/10 06:24:53;;;;;;;54.53;25.05;;;;;;;0.42;100.00;94028.59;5099928;28;20056;-65
2021/12/10 06:27:20;;;;;;;55.72;25.40;;;;;;;0.50;100.00;94027.63;5097953;28;20405;-66
2021/12/10 06:29:47;;;;;;;64.28;28.13;;;;;;;0.46;100.00;94016.97;5093123;28;20027;-66
2021/12/10 06:32:16;;;;;;;64.85;26.63;;;;;;;0.49;100.00;94014.03;5096385;28;20039;-65
2021/12/10 06:34:43;;;;;;;60.63;24.70;;;;;;;0.67;100.00;94020.47;5100070;28;20461;-66
2021/12/10 06:37:10;;;;;;;67.72;27.77;;;;;;;0.72;100.00;93995.84;5080095;28;20050;-65
2021/12/10 06:39:37;;;;;;;59.95;28.15;;;;;;;0.73;100.00;93991.50;5096873;28;20036;-65
2021/12/10 06:42:04;;;;;;;65.75;29.88;;;;;;;0.64;100.00;93990.06;5090649;28;20043;-65
2021/12/10 06:44:36;;;;;;;60.67;26.58;;;;;;;0.68;100.00;93992.06;5092446;28;20037;-65
2021/12/10 06:47:05;;;;;;;58.47;24.67;;;;;;;0.76;100.00;93998.81;5093600;28;20136;-66
2021/12/10 06:49:33;;;;;;;56.45;25.00;;;;;;;0.86;100.00;93990.75;5100031;28;20035;-66
2021/12/10 06:52:01;;;;;;;61.88;23.77;;;;;;;0.95;100.00;93969.91;5096739;28;20043;-66
2021/12/10 06:54:29;;;;;;;50.80;23.38;;;;;;;1.15;100.00;93976.84;5092311;28;20048;-65
2021/12/10 06:56:57;;;;;;;51.20;21.58;;;;;;;1.11;100.00;93970.53;5090664;28;20040;-66
2021/12/10 06:59:26;;;;;;;53.30;20.77;;;;;;;1.17;100.00;93967.19;5093763;28;20532;-65
2021/12/10 07:01:54;;;;;;;66.60;29.52;;;;;;;1.20;100.00;93982.19;5089473;28;20123;-66
2021/12/10 07:04:22;;;;;;;54.85;24.77;;;;;;;1.38;100.00;93978.28;5091927;28;20085;-66
2021/12/10 07:06:49;;;;;;;60.38;25.10;;;;;;;1.24;100.00;93957.75;5092326;28;20048;-66
2021/12/10 07:09:21;;;;;;;53.35;24.75;;;;;;;1.37;100.00;93981.81;5088461;28;21586;-66
2021/12/10 07:11:50;;;;;;;70.38;30.13;;;;;;;1.48;100.00;93983.84;5090539;28;20043;-66
2021/12/10 07:14:17;;;;;;;52.00;25.20;;;;;;;1.63;100.00;93984.44;5090084;28;20093;-66
2021/12/10 07:16:47;;;;;;;47.90;21.67;;;;;;;1.81;100.00;93977.94;5094312;28;20044;-66
2021/12/10 07:19:14;;;;;;;61.05;27.75;;;;;;;1.77;100.00;93987.03;5091136;28;20039;-66
2021/12/10 07:21:41;;;;;;;62.63;25.45;;;;;;;1.70;100.00;93990.38;5090728;28;20036;-66
2021/12/10 07:24:10;;;;;;;74.00;36.80;;;;;;;1.60;100.00;93997.66;5092137;28;20073;-65
2021/12/10 07:26:38;;;;;;;82.97;41.70;;;;;;;1.60;100.00;93997.66;5092551;28;21218;-66
2021/12/10 07:29:06;;;;;;;62.50;27.40;;;;;;;1.85;100.00;93982.47;5091347;28;20767;-66
2021/12/10 07:31:36;;;;;;;60.90;25.55;;;;;;;1.91;100.00;93973.22;5094035;28;20031;-66
2021/12/10 07:34:03;;;;;;;55.55;26.02;;;;;;;1.92;100.00;93985.03;5092146;28;20088;-66
2021/12/10 07:36:31;;;;;;;57.00;30.17;;;;;;;2.06;100.00;93991.75;5095448;28;20050;-66
2021/12/10 07:38:57;;;;;;;58.10;26.05;;;;;;;2.05;100.00;94000.47;5088462;28;20047;-66
2021/12/10 07:41:25;;;;;;;67.53;30.65;;;;;;;2.04;100.00;93983.47;5092157;28;20028;-66
2021/12/10 07:43:53;;;;;;;60.55;30.85;;;;;;;2.21;100.00;93993.34;5080880;28;20050;-66
2021/12/10 07:46:20;;;;;;;63.47;29.85;;;;;;;2.43;100.00;93981.84;5087437;28;20054;-66
2021/12/10 07:48:49;;;;;;;83.80;38.05;;;;;;;2.47;100.00;93983.00;5077707;28;20055;-66
2021/12/10 07:51:21;;;;;;;59.47;28.35;;;;;;;2.43;100.00;93981.03;5090191;28;20062;-67
2021/12/10 07:53:53;;;;;;;50.45;27.13;;;;;;;2.58;100.00;93988.53;5091056;28;20052;-66
2021/12/10 07:56:20;;;;;;;58.05;28.90;;;;;;;2.83;100.00;93980.94;5089908;28;20047;-66
2021/12/10 07:58:47;;;;;;;57.53;29.20;;;;;;;3.02;100.00;93974.13;5091022;28;20521;-65
2021/12/10 08:01:18;;;;;;;43.58;22.35;;;;;;;2.99;100.00;93984.81;5085679;28;20119;-65
2021/12/10 08:03:47;;;;;;;53.03;24.55;;;;;;;2.97;100.00;93985.06;5093076;28;20044;-66
2021/12/10 08:06:15;;;;;;;49.97;23.73;;;;;;;3.05;100.00;93973.72;5093118;28;20036;-66
2021/12/10 08:08:42;;;;;;;57.42;24.85;;;;;;;3.31;100.00;93982.31;5089143;28;21680;-66
2021/12/10 08:11:10;;;;;;;51.47;23.73;;;;;;;3.36;100.00;93972.97;5089636;28;20127;-66
2021/12/10 08:13:37;;;;;;;65.60;30.15;;;;;;;3.58;100.00;93977.78;5093902;28;20746;-66
2021/12/10 08:16:05;;;;;;;64.55;29.90;;;;;;;3.60;100.00;93971.44;5097185;28;20046;-66
2021/12/10 08:18:32;;;;;;;55.92;24.65;;;;;;;3.80;100.00;93975.69;5092025;28;20090;-66
2021/12/10 08:21:00;;;;;;;41.03;20.13;;;;;;;3.92;100.00;93979.13;5098252;28;20040;-66
2021/12/10 08:23:27;;;;;;;44.78;21.15;;;;;;;3.94;100.00;93977.16;5089328;28;22459;-66
2021/12/10 08:25:54;;;;;;;43.95;20.80;;;;;;;3.87;100.00;93986.72;5094243;28;22017;-66
2021/12/10 08:28:23;;;;;;;39.90;20.52;;;;;;;3.77;100.00;93978.66;5086655;28;20044;-66
2021/12/10 08:30:52;;;;;;;41.97;21.05;;;;;;;3.99;100.00;93977.28;5087981;28;20043;-66
2021/12/10 08:33:19;;;;;;;37.22;18.60;;;;;;;4.07;100.00;93965.94;5092753;28;20050;-67
2021/12/10 08:35:52;;;;;;;41.25;22.58;;;;;;;4.21;100.00;93971.75;5088741;28;20527;-66
2021/12/10 08:38:19;;;;;;;62.42;27.30;;;;;;;4.30;100.00;93975.63;5079145;28;20452;-66
2021/12/10 08:41:09;;;;;;;32.85;18.10;;;;;;;4.29;100.00;93976.66;5086160;28;20529;-66
2021/12/10 08:43:37;;;;;;;32.45;15.70;;;;;;;4.37;100.00;93975.59;5081777;28;20446;-67
2021/12/10 08:46:05;;;;;;;34.92;20.85;;;;;;;4.64;100.00;93976.09;5069298;28;20060;-66
2021/12/10 08:48:33;;;;;;;34.42;18.33;;;;;;;4.70;100.00;93980.41;5084978;28;20055;-66
2021/12/10 08:51:07;;;;;;;30.15;15.05;;;;;;;4.70;100.00;93967.53;5083787;28;20051;-66
2021/12/10 08:53:34;;;;;;;39.67;15.23;;;;;;;4.81;100.00;93949.72;5082915;28;20134;-67
2021/12/10 08:56:02;;;;;;;74.30;19.08;;;;;;;4.61;100.00;93950.75;5082553;28;20402;-67
2021/12/10 08:58:29;;;;;;;91.53;23.20;;;;;;;4.61;100.00;93955.91;5087587;28;20429;-67
2021/12/10 09:01:07;;;;;;;69.63;22.33;;;;;;;4.78;100.00;93961.28;5080976;28;20120;-67
2021/12/10 09:03:43;;;;;;;52.53;26.77;;;;;;;4.92;100.00;93978.19;5086508;28;20540;-67
2021/12/10 09:06:11;;;;;;;44.47;21.30;;;;;;;4.98;100.00;93981.69;5091847;28;20143;-67
2021/12/10 09:08:39;;;;;;;47.63;20.33;;;;;;;5.03;100.00;93968.16;5070456;28;20050;-66
2021/12/10 09:11:10;;;;;;;53.33;24.05;;;;;;;4.99;100.00;93957.47;5082843;28;20045;-66
2021/12/10 09:13:37;;;;;;;50.95;22.10;;;;;;;5.10;100.00;93945.63;5072169;28;20040;-66
2021/12/10 09:16:12;;;;;;;50.97;22.63;;;;;;;5.22;100.00;93955.97;5082048;28;20036;-66
2021/12/10 09:18:40;;;;;;;41.55;23.45;;;;;;;5.33;100.00;93968.16;5084780;28;20215;-65
2021/12/10 09:21:09;;;;;;;38.33;20.65;;;;;;;5.00;100.00;93938.38;5085975;28;20046;-65
2021/12/10 09:23:37;;;;;;;45.00;23.92;;;;;;;5.05;100.00;93946.28;5085772;28;20450;-65
2021/12/10 09:26:09;;;;;;;57.90;27.70;;;;;;;4.69;100.00;93957.41;5089566;28;20119;-65
2021/12/10 09:28:37;;;;;;;51.28;26.40;;;;;;;4.38;100.00;93921.22;5087061;28;20048;-65
2021/12/10 09:31:05;;;;;;;56.45;29.33;;;;;;;4.57;100.00;93936.69;5084293;28;20067;-65
2021/12/10 09:33:33;;;;;;;63.42;30.98;;;;;;;4.63;100.00;93961.66;5072851;28;20047;-65
2021/12/10 09:36:01;;;;;;;55.30;29.23;;;;;;;4.68;100.00;93977.28;5083263;28;20432;-66
2021/12/10 09:38:30;;;;;;;54.08;27.23;;;;;;;4.79;100.00;93966.22;5085152;28;20044;-65
2021/12/10 09:44:39;;;;;;;100.88;41.00;;;;;;;4.82;100.00;93946.16;5086460;28;20560;-65
2021/12/10 09:47:10;;;;;;;78.43;37.00;;;;;;;4.84;100.00;93923.50;5091664;28;20044;-65
2021/12/10 09:49:38;;;;;;;71.63;34.05;;;;;;;4.90;100.00;93907.16;5090752;28;20089;-65
2021/12/10 09:52:06;;;;;;;60.22;29.33;;;;;;;5.03;100.00;93927.63;5085449;28;20513;-65
2021/12/10 09:54:35;;;;;;;59.75;27.80;;;;;;;4.99;100.00;93939.41;5084430;28;20060;-65
2021/12/10 09:57:02;;;;;;;53.65;27.45;;;;;;;5.11;100.00;93940.25;5088347;28;20052;-65
2021/12/10 09:59:29;;;;;;;41.40;21.83;;;;;;;5.14;100.00;93924.31;5090690;28;20062;-66
2021/12/10 10:01:57;;;;;;;37.55;19.73;;;;;;;5.33;100.00;93932.00;5084035;28;20086;-66
2021/12/10 10:04:27;;;;;;;32.13;17.50;;;;;;;5.52;100.00;93925.75;5075201;28;20540;-66
2021/12/10 10:06:58;;;;;;;36.53;16.27;;;;;;;5.68;100.00;93921.75;5090643;28;20036;-65
2021/12/10 10:09:27;;;;;;;31.27;17.05;;;;;;;5.92;100.00;93904.50;5088635;28;20036;-65
2021/12/10 10:11:59;;;;;;;33.67;17.70;;;;;;;5.89;100.00;93910.09;5081389;28;20036;-66
2021/12/10 10:14:26;;;;;;;29.90;16.58;;;;;;;5.50;100.00;93891.63;5093150;28;20051;-66
2021/12/10 10:16:53;;;;;;;33.33;18.50;;;;;;;5.21;100.00;93902.78;5085531;28;20039;-65
2021/12/10 10:19:20;;;;;;;65.03;25.90;;;;;;;5.06;100.00;93906.56;5088653;28;20039;-66
2021/12/10 10:21:53;;;;;;;56.85;27.27;;;;;;;5.46;100.00;93895.66;5089630;28;20108;-66
2021/12/10 10:24:23;;;;;;;49.30;26.05;;;;;;;5.62;100.00;93906.34;5065868;28;20509;-65
2021/12/10 10:26:56;;;;;;;59.03;30.73;;;;;;;5.70;100.00;93895.69;5083715;28;20055;-66
2021/12/10 10:29:27;;;;;;;66.68;32.33;;;;;;;5.50;100.00;93891.63;5087387;28;20416;-66
2021/12/10 10:32:10;;;;;;;64.95;32.90;;;;;;;5.33;100.00;93882.94;5086756;28;20028;-66
2021/12/10 10:34:45;;;;;;;65.28;33.50;;;;;;;5.43;100.00;93875.44;5085667;28;20044;-66
2021/12/10 10:37:12;;;;;;;71.97;35.03;;;;;;;5.52;100.00;93874.09;5084962;28;20047;-65
2021/12/10 10:39:42;;;;;;;68.50;37.78;;;;;;;5.45;100.00;93852.75;5089121;28;20050;-65
2021/12/10 10:42:14;;;;;;;70.72;38.38;;;;;;;5.68;100.00;93861.56;5084008;28;20421;-66
2021/12/10 10:44:57;;;;;;;72.28;36.65;;;;;;;5.90;100.00;93865.16;5084661;28;20043;-65
2021/12/10 10:47:24;;;;;;;66.95;33.45;;;;;;;5.91;100.00;93861.56;5090600;28;20036;-66
2021/12/10 10:49:58;;;;;;;61.15;32.80;;;;;;;5.99;100.00;93862.25;5083765;28;20554;-65
2021/12/10 10:52:37;;;;;;;65.03;32.13;;;;;;;6.03;100.00;93864.19;5094994;28;20032;-65
2021/12/10 10:55:10;;;;;;;65.85;33.00;;;;;;;6.02;100.00;93859.22;5096082;28;20044;-66
2021/12/10 10:57:47;;;;;;;82.20;39.25;;;;;;;6.08;100.00;93856.50;5092091;28;20071;-66
2021/12/10 11:00:45;;;;;;;91.35;41.45;;;;;;;6.16;100.00;93862.34;5094374;28;20043;-67
2021/12/10 11:03:37;;;;;;;56.13;31.02;;;;;;;6.16;100.00;93858.00;5088378;28;20530;-65
2021/12/10 11:06:09;;;;;;;53.80;30.48;;;;;;;6.20;100.00;93866.84;5093096;28;20039;-65
2021/12/10 11:08:42;;;;;;;71.90;36.38;;;;;;;6.03;100.00;93869.34;5090340;28;20040;-65
2021/12/10 11:11:23;;;;;;;61.70;32.60;;;;;;;5.40;100.00;93880.25;5080168;28;20743;-65
2021/12/10 11:14:01;;;;;;;70.05;32.55;;;;;;;5.42;100.00;93873.88;5084247;28;20417;-65
2021/12/10 11:16:30;;;;;;;76.40;34.70;;;;;;;5.31;100.00;93848.81;5083155;28;20047;-65
2021/12/10 11:19:01;;;;;;;77.53;40.10;;;;;;;5.38;100.00;93865.00;5069464;28;21076;-65
2021/12/10 11:21:39;;;;;;;69.03;32.42;;;;;;;5.00;100.00;93865.34;5085840;28;20039;-65
2021/12/10 11:24:11;;;;;;;71.32;34.47;;;;;;;4.87;100.00;93871.47;5070143;28;20036;-64
2021/12/10 11:26:47;;;;;;;62.67;34.80;;;;;;;4.85;100.00;93873.50;5092918;28;20047;-65
2021/12/10 11:29:29;;;;;;;80.78;37.30;;;;;;;4.76;100.00;93854.94;5075814;28;20040;-67
2021/12/10 11:32:01;;;;;;;87.43;43.72;;;;;;;5.06;100.00;93867.84;5068861;28;20043;-66
2021/12/10 11:34:46;;;;;;;97.65;47.30;;;;;;;4.54;100.00;93878.63;5091041;28;20038;-66
2021/12/10 11:37:15;;;;;;;84.68;42.35;;;;;;;4.08;100.00;93884.28;5089960;28;20047;-66
2021/12/10 11:39:52;;;;;;;104.15;46.75;;;;;;;4.13;100.00;93892.16;5086187;28;20109;-66
2021/12/10 11:42:36;;;;;;;94.18;47.67;;;;;;;4.13;100.00;93892.94;5068564;28;20040;-65